CST,Max TemperatureF,Mean TemperatureF,Min TemperatureF,Max Dew PointF,MeanDew PointF,Min DewpointF,Max Humidity, Mean Humidity, Min Humidity, Max Sea Level PressureIn, Mean Sea Level PressureIn, Min Sea Level PressureIn, Max VisibilityMiles, Mean VisibilityMiles, Min VisibilityMiles, Max Wind SpeedMPH, Mean Wind SpeedMPH, Max Gust SpeedMPH,PrecipitationIn, CloudCover, Events, WindDirDegrees
2013-12-1,19,17,15,16,14,10,93,82,74,30.21,30.08,29.87,10,9,2,13,4,17,0.00,7,,100
2013-12-2,26,22,19,21,18,16,93,80,74,29.86,29.73,29.65,10,4,1,18,14,24,0.00,5,,64
2013-12-3,26,24,21,21,17,14,86,79,74,29.93,29.84,29.75,10,9,1,18,15,23,0.00,7,,31
2013-12-4,21,16,8,16,9,3,86,79,73,29.91,29.77,29.66,10,2,0,20,15,23,0.00,1,,19
2013-12-5,8,2,-5,3,-4,-11,85,76,66,30.23,29.95,29.67,10,4,1,23,17,30,0.00,0,,293
2013-12-6,-5,-10,-16,-11,-17,-24,100,75,59,30.51,30.40,30.23,10,10,5,13,8,,0.00,,,259
2013-12-7,-9,-17,-25,-18,-24,-29,91,66,49,30.53,30.48,30.39,10,10,4,14,8,,0.00,,,214
2013-12-8,1,-10,-20,1,-16,-29,100,67,23,30.40,30.15,29.94,10,8,3,13,7,,0.00,,,180
2013-12-9,-2,-9,-16,-9,-19,-27,84,65,49,29.96,29.88,29.77,10,9,2,14,9,,0.00,,,231
2013-12-10,-4,-9,-14,-9,-19,-27,92,64,49,30.28,29.97,29.79,10,10,3,15,5,,0.00,,,281
2013-12-11,0,-12,-23,-6,-21,-29,85,64,49,30.39,30.30,30.15,10,10,3,16,8,,0.00,,,222
2013-12-12,5,0,-5,0,-8,-22,92,70,33,30.22,30.18,30.14,10,10,5,14,6,,0.00,,,299
2013-12-13,-2,-4,-7,-11,-17,-29,84,58,34,30.37,30.31,30.24,10,9,2,15,11,,0.00,,,47
2013-12-14,0,-8,-16,-9,-17,-27,78,62,29,30.34,30.20,30.12,10,7,2,12,6,,0.00,,,354
2013-12-15,1,-12,-25,-8,-21,-29,92,64,54,30.18,30.11,29.94,10,10,1,12,5,,0.00,,,95
2013-12-16,28,14,1,25,8,-15,86,77,43,29.93,29.79,29.74,10,7,0,21,15,26,0.00,,,219
2013-12-17,26,10,-5,19,2,-9,92,74,61,30.07,29.95,29.77,10,9,2,25,14,30,0.00,,,288
2013-12-18,21,11,0,14,5,-8,92,75,66,29.99,29.70,29.54,10,10,10,22,11,26,0.00,,,99
2013-12-19,0,-4,-9,-6,-10,-15,84,75,60,30.25,30.16,30.00,10,9,3,15,10,,0.00,0,,347
2013-12-20,3,-4,-11,1,-7,-20,100,84,64,30.15,29.95,29.82,10,10,10,13,5,,0.00,0,,197
2013-12-21,1,-3,-7,-2,-7,-15,92,76,66,30.15,30.00,29.83,10,10,8,15,5,,0.00,0,,10
2013-12-22,-2,-8,-14,-9,-13,-22,84,73,60,30.38,30.22,30.12,10,9,2,14,10,,0.00,0,,348
2013-12-23,-11,-17,-23,-20,-25,-29,83,64,44,30.53,30.45,30.34,10,10,3,10,7,,0.00,0,,277
2013-12-24,12,-4,-20,10,-6,-29,92,73,46,30.33,30.06,29.95,10,6,1,22,13,28,0.00,0,,180
2013-12-25,17,12,6,14,7,1,92,81,73,30.10,30.04,29.94,10,9,3,15,7,,0.00,0,,287
2013-12-26,21,10,0,18,5,-4,100,80,73,30.08,30.04,29.97,10,10,8,14,5,,0.00,1,,119
2013-12-27,33,27,21,27,24,18,93,83,70,29.97,29.85,29.72,10,10,4,23,14,28,0.00,,,248
2013-12-28,28,6,-16,27,8,-24,93,82,64,30.37,29.98,29.75,10,5,1,26,11,34,0.00,,,20
2013-12-29,-11,-17,-23,-22,-25,-29,76,62,48,30.41,30.30,30.14,10,10,10,17,9,,0.00,,,246
2013-12-30,-4,-14,-23,-13,-20,-29,91,63,49,30.20,30.16,30.11,10,10,5,8,4,,0.00,,,282
2013-12-31,-18,-22,-25,-26,-28,-29,76,64,58,30.41,30.29,30.14,10,10,10,14,6,,0.00,,,317